Time;durP1;ratioP1;P1;durP2;ratioP2;P2;SDS_P1;SDS_P2;PMS_P1;PMS_P2;Temp;Humidity;BMP_temperature;BMP_pressure;BME280_temperature;BME280_humidity;BME280_pressure;Samples;Min_cycle;Max_cycle;Signal;HPM_P1;HPM_P2
2021/07/31 00:01:12;;;;;;;6.63;2.07;;;15.80;99.90;;;;;;5033260;28;20207;-65
2021/07/31 00:03:39;;;;;;;5.20;1.60;;;15.80;99.90;;;;;;5032882;28;20260;-65
2021/07/31 00:06:07;;;;;;;5.33;1.87;;;15.70;99.90;;;;;;5033115;28;20276;-65
2021/07/31 00:08:34;;;;;;;2.03;1.33;;;15.70;99.90;;;;;;5032633;28;20230;-65
2021/07/31 00:11:02;;;;;;;5.20;1.93;;;15.70;99.90;;;;;;5033091;28;20261;-65
2021/07/31 00:13:29;;;;;;;3.97;1.53;;;15.70;99.90;;;;;;5032784;28;20202;-65
2021/07/31 00:15:55;;;;;;;4.17;1.50;;;15.70;99.90;;;;;;5032739;28;20206;-65
2021/07/31 00:18:22;;;;;;;3.27;1.43;;;15.70;99.90;;;;;;5032739;28;20210;-65
2021/07/31 00:20:49;;;;;;;5.57;1.80;;;15.60;99.90;;;;;;5032699;28;20206;-65
2021/07/31 00:23:15;;;;;;;6.67;1.60;;;15.60;99.90;;;;;;5032637;28;20257;-65
2021/07/31 00:25:42;;;;;;;3.83;1.30;;;15.60;99.90;;;;;;5032490;28;20299;-65
2021/07/31 00:28:10;;;;;;;3.67;1.43;;;15.70;99.90;;;;;;5032782;28;20218;-65
2021/07/31 00:30:36;;;;;;;5.93;1.50;;;15.70;99.90;;;;;;5032433;28;20579;-65
2021/07/31 00:33:03;;;;;;;2.93;1.20;;;15.60;99.90;;;;;;5032610;28;20257;-66
2021/07/31 00:35:30;;;;;;;4.60;1.40;;;15.60;99.90;;;;;;5032159;28;20210;-65
2021/07/31 00:37:56;;;;;;;4.17;1.60;;;15.60;99.90;;;;;;5032387;28;20244;-65
2021/07/31 00:40:23;;;;;;;6.40;1.63;;;15.60;99.90;;;;;;5032445;28;20300;-65
2021/07/31 00:42:50;;;;;;;2.60;1.50;;;15.60;99.90;;;;;;5032545;28;20251;-65
2021/07/31 00:45:18;;;;;;;6.87;1.80;;;15.60;99.90;;;;;;5032108;28;20226;-65
2021/07/31 00:47:45;;;;;;;5.30;1.50;;;15.60;99.90;;;;;;5032311;28;20206;-65
2021/07/31 00:50:13;;;;;;;5.10;1.63;;;15.60;99.90;;;;;;5031913;28;20233;-66
2021/07/31 00:52:41;;;;;;;3.97;1.50;;;15.70;99.90;;;;;;5032464;28;20237;-65
2021/07/31 00:55:10;;;;;;;4.10;1.30;;;15.70;99.90;;;;;;5032226;28;20210;-65
2021/07/31 00:57:40;;;;;;;4.60;1.53;;;15.80;99.90;;;;;;5032142;28;20214;-65
2021/07/31 01:00:08;;;;;;;6.43;2.27;;;15.80;99.90;;;;;;5032312;28;20231;-65
2021/07/31 01:02:36;;;;;;;11.37;1.60;;;15.80;99.90;;;;;;5031998;28;20257;-65
2021/07/31 01:05:04;;;;;;;3.77;1.33;;;15.80;99.90;;;;;;5030719;28;20222;-65
2021/07/31 01:07:30;;;;;;;4.17;1.40;;;15.90;99.90;;;;;;5032110;28;20630;-65
2021/07/31 01:09:57;;;;;;;3.07;1.60;;;15.90;99.90;;;;;;5032084;28;20230;-65
2021/07/31 01:12:24;;;;;;;2.67;1.50;;;15.90;99.90;;;;;;5032015;28;20216;-66
2021/07/31 01:14:51;;;;;;;3.20;1.50;;;15.90;99.90;;;;;;5032016;28;20213;-65
2021/07/31 01:17:17;;;;;;;3.17;1.63;;;15.90;99.90;;;;;;5031830;28;20625;-65
2021/07/31 01:19:45;;;;;;;3.90;1.67;;;15.90;99.90;;;;;;5032081;28;20226;-65
2021/07/31 01:22:13;;;;;;;3.47;1.70;;;15.90;99.90;;;;;;5031978;28;20210;-65
2021/07/31 01:24:40;;;;;;;5.37;1.57;;;15.90;99.90;;;;;;5031643;28;20222;-65
2021/07/31 01:27:07;;;;;;;5.67;1.77;;;15.90;99.90;;;;;;5031742;28;20206;-65
2021/07/31 01:29:34;;;;;;;5.10;1.63;;;15.90;99.90;;;;;;5031593;28;20651;-65
2021/07/31 01:32:00;;;;;;;3.10;1.40;;;15.90;99.90;;;;;;5031650;28;20206;-65
2021/07/31 01:34:27;;;;;;;4.90;1.70;;;15.90;99.90;;;;;;5031631;28;20206;-65
2021/07/31 01:36:54;;;;;;;3.07;1.37;;;15.90;99.90;;;;;;5031805;28;20206;-65
2021/07/31 01:39:21;;;;;;;3.40;1.60;;;15.90;99.90;;;;;;5031788;28;20292;-65
2021/07/31 01:41:48;;;;;;;6.07;1.73;;;15.90;99.90;;;;;;5031719;28;20202;-65
2021/07/31 01:44:15;;;;;;;3.23;1.70;;;15.90;99.90;;;;;;5031425;28;20256;-65
2021/07/31 01:46:42;;;;;;;2.90;1.80;;;15.90;99.90;;;;;;5031792;28;20272;-65
2021/07/31 01:49:09;;;;;;;3.83;1.70;;;15.90;99.90;;;;;;5032119;28;20230;-65
2021/07/31 01:51:35;;;;;;;4.03;1.73;;;15.80;99.90;;;;;;5031959;28;20207;-65
2021/07/31 01:54:02;;;;;;;6.83;2.00;;;15.80;99.90;;;;;;5031767;28;20210;-65
2021/07/31 01:56:30;;;;;;;3.97;2.03;;;15.70;99.90;;;;;;5031673;28;20324;-65
2021/07/31 01:58:57;;;;;;;4.70;1.80;;;15.70;99.90;;;;;;5032445;28;20226;-65
2021/07/31 02:01:24;;;;;;;7.47;1.90;;;15.70;99.90;;;;;;5031953;28;20206;-65
2021/07/31 02:03:50;;;;;;;5.70;1.70;;;15.70;99.90;;;;;;5031538;28;20236;-65
2021/07/31 02:06:17;;;;;;;4.07;1.90;;;15.60;99.90;;;;;;5031444;28;20222;-65
2021/07/31 02:08:44;;;;;;;5.73;2.10;;;15.60;99.90;;;;;;5031416;28;20226;-65
2021/07/31 02:11:11;;;;;;;5.33;1.80;;;15.70;99.90;;;;;;5031462;28;20264;-65
2021/07/31 02:13:39;;;;;;;9.80;1.97;;;15.70;99.90;;;;;;5031036;28;20632;-65
2021/07/31 02:16:06;;;;;;;3.07;1.80;;;15.70;99.90;;;;;;5031939;28;20210;-65
2021/07/31 02:18:33;;;;;;;4.03;2.10;;;15.70;99.90;;;;;;5034686;28;20739;-65
2021/07/31 02:20:59;;;;;;;7.47;2.23;;;15.70;99.90;;;;;;5035141;28;20265;-65
2021/07/31 02:23:26;;;;;;;7.87;1.90;;;15.70;99.90;;;;;;5034884;28;20275;-65
2021/07/31 02:25:53;;;;;;;4.33;1.97;;;15.80;99.90;;;;;;5034775;28;20272;-65
2021/07/31 02:28:20;;;;;;;5.47;2.30;;;15.70;99.90;;;;;;5034477;28;20830;-65
2021/07/31 02:30:47;;;;;;;6.10;2.00;;;15.80;99.90;;;;;;5034990;28;20256;-65
2021/07/31 02:33:14;;;;;;;6.77;2.10;;;15.70;99.90;;;;;;5034949;28;20202;-65
2021/07/31 02:35:41;;;;;;;4.40;1.53;;;15.70;99.90;;;;;;5034630;28;20699;-65
2021/07/31 02:38:07;;;;;;;4.77;2.20;;;15.80;99.90;;;;;;5034752;28;20202;-65
2021/07/31 02:40:34;;;;;;;5.07;2.40;;;15.80;99.90;;;;;;5034423;28;20413;-65
2021/07/31 02:43:01;;;;;;;6.33;1.80;;;15.80;99.90;;;;;;5034585;28;20213;-66
2021/07/31 02:45:27;;;;;;;3.67;1.97;;;15.70;99.90;;;;;;5034276;28;20306;-65
2021/07/31 02:47:55;;;;;;;7.40;2.90;;;15.70;99.90;;;;;;5034613;28;20237;-65
2021/07/31 02:50:22;;;;;;;8.70;2.90;;;15.70;99.90;;;;;;5034288;28;20760;-65
2021/07/31 02:52:48;;;;;;;5.77;3.00;;;15.60;99.90;;;;;;5034476;28;20276;-65
2021/07/31 02:55:15;;;;;;;6.80;2.07;;;15.60;99.90;;;;;;5033992;28;20210;-66
2021/07/31 02:57:42;;;;;;;6.67;2.20;;;15.60;99.90;;;;;;5034232;28;20210;-65
2021/07/31 03:00:09;;;;;;;6.60;2.20;;;15.50;99.90;;;;;;5034476;28;20231;-65
2021/07/31 03:02:36;;;;;;;7.70;2.53;;;15.50;99.90;;;;;;5034259;28;20206;-65
2021/07/31 03:05:04;;;;;;;6.17;2.17;;;15.50;99.90;;;;;;5033900;28;20734;-65
2021/07/31 03:07:32;;;;;;;7.00;2.30;;;15.40;99.90;;;;;;5034054;28;20202;-65
2021/07/31 03:09:59;;;;;;;5.00;2.00;;;15.50;99.90;;;;;;5034149;28;20222;-65
2021/07/31 03:12:26;;;;;;;7.47;2.30;;;15.50;99.90;;;;;;5034013;28;20202;-65
2021/07/31 03:14:53;;;;;;;4.47;2.30;;;15.50;99.90;;;;;;5033947;28;20207;-65
2021/07/31 03:17:21;;;;;;;3.67;2.10;;;15.60;99.90;;;;;;5033918;28;20214;-65
2021/07/31 03:19:48;;;;;;;6.17;2.50;;;15.60;99.90;;;;;;5033696;28;20784;-65
2021/07/31 03:22:16;;;;;;;7.50;2.20;;;15.60;99.90;;;;;;5033770;28;20220;-65
2021/07/31 03:24:43;;;;;;;5.27;1.93;;;15.60;99.90;;;;;;5034005;28;20209;-65
2021/07/31 03:27:10;;;;;;;3.77;2.17;;;15.60;99.90;;;;;;5033650;28;20226;-65
2021/07/31 03:29:37;;;;;;;6.33;2.00;;;15.60;99.90;;;;;;5032917;28;20230;-65
2021/07/31 03:32:04;;;;;;;5.90;2.30;;;15.60;99.90;;;;;;5033756;28;20574;-65
2021/07/31 03:34:31;;;;;;;3.47;2.00;;;15.70;99.90;;;;;;5033308;28;20260;-65
2021/07/31 03:36:58;;;;;;;5.77;2.13;;;15.70;99.90;;;;;;5033492;28;20202;-66
2021/07/31 03:39:26;;;;;;;4.43;2.40;;;15.60;99.90;;;;;;5033557;28;20226;-65
2021/07/31 03:41:55;;;;;;;6.07;2.30;;;15.70;99.90;;;;;;5033683;28;20202;-65
2021/07/31 03:44:22;;;;;;;6.20;2.40;;;15.60;99.90;;;;;;5033299;28;20631;-65
2021/07/31 03:46:50;;;;;;;6.63;2.07;;;15.70;99.90;;;;;;5033411;28;20222;-65
2021/07/31 03:49:17;;;;;;;7.10;2.27;;;15.70;99.90;;;;;;5033016;28;20629;-66
2021/07/31 03:51:43;;;;;;;5.30;2.43;;;15.70;99.90;;;;;;5033664;28;20217;-65
2021/07/31 03:54:10;;;;;;;6.73;2.37;;;15.70;99.90;;;;;;5033253;28;20210;-65
2021/07/31 03:56:38;;;;;;;5.50;2.07;;;15.70;99.90;;;;;;5033124;28;20256;-65
2021/07/31 03:59:05;;;;;;;6.07;2.37;;;15.70;99.90;;;;;;5033337;28;20230;-65
2021/07/31 04:01:32;;;;;;;5.07;2.20;;;15.70;99.90;;;;;;5033138;28;20210;-65
2021/07/31 04:03:59;;;;;;;6.43;2.53;;;15.70;99.90;;;;;;5033004;28;20616;-65
2021/07/31 04:06:25;;;;;;;5.20;2.00;;;15.70;99.90;;;;;;5032995;28;20230;-65
2021/07/31 04:08:52;;;;;;;5.73;2.30;;;15.70;99.90;;;;;;5033157;28;20300;-65
2021/07/31 04:11:19;;;;;;;4.67;2.30;;;15.70;99.90;;;;;;5033032;28;20260;-66
2021/07/31 04:13:47;;;;;;;8.63;2.33;;;15.70;99.90;;;;;;5033010;28;20252;-65
2021/07/31 04:16:13;;;;;;;4.47;2.50;;;15.70;99.90;;;;;;5032787;28;20210;-66
2021/07/31 04:18:40;;;;;;;6.63;2.40;;;15.70;99.90;;;;;;5032596;28;20303;-66
2021/07/31 04:21:07;;;;;;;5.50;2.10;;;15.70;99.90;;;;;;5033118;28;20260;-66
2021/07/31 04:23:35;;;;;;;5.27;2.07;;;15.70;99.90;;;;;;5032642;28;20212;-66
2021/07/31 04:26:13;;;;;;;4.83;2.10;;;15.70;99.90;;;;;;5032508;28;20727;-66
2021/07/31 04:28:40;;;;;;;5.30;2.40;;;15.60;99.90;;;;;;5032282;28;20333;-66
2021/07/31 04:31:10;;;;;;;4.20;2.27;;;15.60;99.90;;;;;;5032472;28;20210;-66
2021/07/31 04:33:36;;;;;;;6.90;2.57;;;15.60;99.90;;;;;;5032944;28;20209;-66
2021/07/31 04:36:03;;;;;;;4.23;2.00;;;15.60;99.90;;;;;;5032632;28;20206;-66
2021/07/31 04:38:30;;;;;;;8.20;2.50;;;15.60;99.90;;;;;;5032379;28;20209;-66
2021/07/31 04:40:57;;;;;;;4.37;2.33;;;15.50;99.90;;;;;;5032315;28;20202;-66
2021/07/31 04:43:23;;;;;;;6.63;2.87;;;15.50;99.90;;;;;;5032241;28;20202;-67
2021/07/31 04:45:50;;;;;;;3.30;2.00;;;15.50;99.90;;;;;;5031990;28;20226;-66
2021/07/31 04:48:18;;;;;;;7.53;2.50;;;15.50;99.90;;;;;;5032449;28;20209;-67
2021/07/31 04:50:45;;;;;;;6.97;2.40;;;15.60;99.90;;;;;;5032332;28;20264;-66
2021/07/31 04:53:12;;;;;;;5.63;2.00;;;15.70;99.90;;;;;;5032436;28;20210;-65
2021/07/31 04:55:38;;;;;;;4.23;1.97;;;15.70;99.90;;;;;;5032033;28;20260;-64
2021/07/31 04:58:05;;;;;;;5.53;2.03;;;15.70;99.90;;;;;;5032093;28;20206;-64
2021/07/31 05:00:31;;;;;;;4.47;2.40;;;15.70;99.90;;;;;;5031802;28;20276;-65
2021/07/31 05:03:04;;;;;;;7.03;2.40;;;15.60;99.90;;;;;;5032341;28;20206;-64
2021/07/31 05:05:33;;;;;;;5.63;2.60;;;15.60;99.90;;;;;;5031982;28;20210;-64
2021/07/31 05:07:59;;;;;;;4.80;2.53;;;15.50;99.90;;;;;;5032143;28;20209;-65
2021/07/31 05:10:26;;;;;;;5.43;2.47;;;15.50;99.90;;;;;;5031959;28;20230;-65
2021/07/31 05:12:53;;;;;;;4.20;2.10;;;15.60;99.90;;;;;;5031914;28;20628;-66
2021/07/31 05:15:20;;;;;;;5.17;2.37;;;15.70;99.90;;;;;;5032084;28;20240;-65
2021/07/31 05:17:46;;;;;;;4.53;2.47;;;15.70;99.90;;;;;;5032243;28;20264;-65
2021/07/31 05:20:13;;;;;;;3.40;2.37;;;15.70;99.90;;;;;;5032099;28;20630;-65
2021/07/31 05:22:41;;;;;;;9.37;2.20;;;15.60;99.90;;;;;;5031873;28;20213;-65
2021/07/31 05:25:09;;;;;;;5.00;2.40;;;15.60;99.90;;;;;;5031763;28;20256;-66
2021/07/31 05:27:35;;;;;;;7.43;2.70;;;15.60;99.90;;;;;;5031459;28;20699;-65
2021/07/31 05:30:02;;;;;;;4.17;2.43;;;15.70;99.90;;;;;;5032019;28;20226;-65
2021/07/31 05:32:29;;;;;;;5.37;2.23;;;15.70;99.90;;;;;;5031929;28;20210;-66
2021/07/31 05:34:55;;;;;;;4.87;2.40;;;15.70;99.90;;;;;;5031806;28;20226;-66
2021/07/31 05:37:22;;;;;;;5.23;2.40;;;15.80;99.90;;;;;;5031787;28;20202;-66
2021/07/31 05:39:50;;;;;;;7.50;2.40;;;15.80;99.90;;;;;;5031600;28;20230;-66
2021/07/31 05:42:16;;;;;;;4.30;2.47;;;15.80;99.90;;;;;;5032041;28;20202;-66
2021/07/31 05:44:43;;;;;;;5.33;2.37;;;15.80;99.90;;;;;;5031577;28;20268;-65
2021/07/31 05:47:09;;;;;;;4.50;2.47;;;15.80;99.90;;;;;;5031778;28;20226;-66
2021/07/31 05:49:36;;;;;;;5.07;2.53;;;15.90;99.90;;;;;;5031757;28;20226;-65
2021/07/31 05:52:05;;;;;;;9.27;2.23;;;15.90;99.90;;;;;;5034548;28;20206;-66
2021/07/31 05:54:32;;;;;;;5.53;2.70;;;15.90;1.00;;;;;;5036256;28;20202;-67
2021/07/31 05:56:59;;;;;;;5.83;2.20;;;15.90;1.00;;;;;;5035522;28;20713;-64
2021/07/31 05:59:26;;;;;;;4.67;2.30;;;15.90;99.90;;;;;;5035822;28;20234;-64
2021/07/31 06:01:53;;;;;;;5.20;2.50;;;15.90;99.90;;;;;;5035930;28;20206;-64
2021/07/31 06:04:19;;;;;;;4.93;2.33;;;15.90;99.90;;;;;;5035903;28;20240;-64
2021/07/31 06:06:46;;;;;;;5.30;2.70;;;16.00;1.00;;;;;;5035226;28;20578;-64
2021/07/31 06:09:12;;;;;;;7.57;2.20;;;16.00;99.90;;;;;;5035333;28;20280;-65
2021/07/31 06:11:39;;;;;;;5.60;2.60;;;16.00;1.00;;;;;;5035598;28;20236;-64
2021/07/31 06:14:07;;;;;;;4.10;2.30;;;15.90;99.90;;;;;;5035586;28;20210;-67
2021/07/31 06:16:34;;;;;;;5.23;2.57;;;15.90;99.90;;;;;;5035219;28;20206;-64
2021/07/31 06:19:00;;;;;;;6.43;2.50;;;15.90;99.90;;;;;;5035163;28;20364;-66
2021/07/31 06:21:27;;;;;;;4.37;2.33;;;16.00;1.00;;;;;;5034946;28;20214;-65
2021/07/31 06:23:53;;;;;;;3.43;2.10;;;16.10;99.90;;;;;;5034846;28;20260;-66
2021/07/31 06:26:20;;;;;;;4.50;2.43;;;16.10;1.00;;;;;;5034973;28;20264;-66
2021/07/31 06:28:47;;;;;;;5.37;2.00;;;16.20;1.00;;;;;;5034994;28;20234;-65
2021/07/31 06:31:15;;;;;;;7.10;2.70;;;16.20;99.90;;;;;;5035228;28;20210;-65
2021/07/31 06:33:42;;;;;;;7.33;3.80;;;16.20;99.90;;;;;;5034723;28;20207;-66
2021/07/31 06:36:08;;;;;;;6.93;3.00;;;16.20;99.90;;;;;;5034706;28;20248;-65
2021/07/31 06:38:35;;;;;;;4.63;2.83;;;16.20;99.90;;;;;;5034913;28;20292;-66
2021/07/31 06:41:01;;;;;;;6.93;3.23;;;16.20;99.90;;;;;;5035399;28;20663;-66
2021/07/31 06:43:28;;;;;;;4.17;2.37;;;16.30;1.00;;;;;;5035386;28;20211;-65
2021/07/31 06:45:55;;;;;;;5.37;2.40;;;16.50;1.00;;;;;;5035113;28;20612;-65
2021/07/31 06:48:22;;;;;;;3.47;2.40;;;16.60;1.00;;;;;;5034632;28;20202;-66
2021/07/31 06:50:49;;;;;;;6.30;2.40;;;16.70;99.90;;;;;;5034703;28;20227;-66
2021/07/31 06:53:16;;;;;;;8.10;2.73;;;16.80;99.90;;;;;;5034691;28;20207;-66
2021/07/31 06:55:42;;;;;;;4.33;2.73;;;16.90;99.90;;;;;;5034474;28;20206;-66
2021/07/31 06:58:09;;;;;;;4.87;2.53;;;17.00;99.90;;;;;;5034501;28;20206;-65
2021/07/31 07:00:35;;;;;;;5.90;2.50;;;17.00;99.90;;;;;;5034287;28;20231;-65
2021/07/31 07:03:02;;;;;;;5.93;2.40;;;16.90;99.90;;;;;;5034262;28;20629;-65
2021/07/31 07:05:30;;;;;;;3.20;2.40;;;16.90;99.90;;;;;;5033953;28;20206;-65
2021/07/31 07:07:57;;;;;;;4.60;2.10;;;16.70;99.90;;;;;;5034382;28;20229;-65
2021/07/31 07:10:23;;;;;;;6.00;2.63;;;16.80;99.90;;;;;;5034271;28;20226;-65
2021/07/31 07:12:50;;;;;;;4.73;2.40;;;16.70;99.90;;;;;;5034243;28;20211;-65
2021/07/31 07:15:17;;;;;;;4.53;2.20;;;16.70;99.90;;;;;;5033842;28;20639;-65
2021/07/31 07:17:43;;;;;;;2.87;1.97;;;16.70;99.90;;;;;;5033965;28;20254;-66
2021/07/31 07:20:11;;;;;;;4.23;2.17;;;16.90;99.90;;;;;;5033885;28;20288;-66
2021/07/31 07:22:39;;;;;;;8.63;2.50;;;17.00;99.90;;;;;;5034097;28;20623;-66
2021/07/31 07:25:06;;;;;;;5.83;2.37;;;17.10;99.90;;;;;;5037732;28;20232;-65
2021/07/31 07:27:33;;;;;;;6.03;3.20;;;17.10;99.90;;;;;;5039280;28;20280;-64
2021/07/31 07:29:59;;;;;;;5.77;2.53;;;17.00;99.90;;;;;;5033891;28;20284;-65
2021/07/31 07:32:26;;;;;;;5.10;2.80;;;17.10;99.90;;;;;;5033558;28;20214;-64
2021/07/31 07:34:53;;;;;;;6.97;2.30;;;17.10;99.90;;;;;;5033872;28;20206;-65
2021/07/31 07:37:19;;;;;;;2.60;2.30;;;17.10;99.90;;;;;;5033898;28;20728;-65
2021/07/31 07:39:47;;;;;;;6.20;2.17;;;17.10;99.90;;;;;;5033980;28;20240;-66
2021/07/31 07:42:14;;;;;;;4.47;2.00;;;17.40;99.90;;;;;;5033338;28;20237;-65
2021/07/31 07:44:40;;;;;;;5.87;2.17;;;17.60;99.90;;;;;;5033807;28;20202;-65
2021/07/31 07:47:07;;;;;;;4.47;2.00;;;17.50;99.90;;;;;;5033376;28;20230;-64
2021/07/31 07:49:33;;;;;;;2.73;1.80;;;17.50;99.90;;;;;;5033604;28;20570;-64
2021/07/31 07:52:00;;;;;;;4.47;2.17;;;17.40;99.90;;;;;;5033788;28;20277;-64
2021/07/31 07:54:28;;;;;;;4.23;2.00;;;17.50;99.90;;;;;;5033316;28;20207;-65
2021/07/31 07:56:56;;;;;;;4.47;1.93;;;17.40;99.90;;;;;;5033321;28;20671;-64
2021/07/31 07:59:22;;;;;;;4.80;1.90;;;17.40;99.90;;;;;;5032944;28;20226;-65
2021/07/31 08:01:49;;;;;;;3.77;2.00;;;17.70;99.90;;;;;;5033085;28;20210;-64
2021/07/31 08:04:16;;;;;;;3.43;1.80;;;18.00;99.90;;;;;;5033147;28;20210;-64
2021/07/31 08:06:43;;;;;;;3.17;1.90;;;18.20;99.90;;;;;;5033144;28;20832;-64
2021/07/31 08:09:10;;;;;;;3.93;1.83;;;18.40;99.90;;;;;;5032908;28;20230;-65
2021/07/31 08:11:36;;;;;;;5.57;1.87;;;18.50;99.90;;;;;;5033178;28;20207;-64
2021/07/31 08:14:04;;;;;;;4.03;1.80;;;18.50;99.90;;;;;;5032198;28;20222;-64
2021/07/31 08:16:31;;;;;;;6.53;2.47;;;18.40;99.90;;;;;;5032875;28;20203;-65
2021/07/31 08:18:59;;;;;;;3.40;1.63;;;18.30;99.90;;;;;;5032830;28;20229;-65
2021/07/31 08:21:25;;;;;;;2.83;1.77;;;18.20;99.90;;;;;;5032653;28;20292;-64
2021/07/31 08:23:52;;;;;;;3.43;1.87;;;18.30;99.90;;;;;;5032783;28;20206;-64
2021/07/31 08:26:19;;;;;;;5.43;2.53;;;18.40;99.90;;;;;;5032738;28;20737;-64
2021/07/31 08:28:45;;;;;;;3.90;1.93;;;18.80;99.90;;;;;;5029062;28;20230;-64
2021/07/31 08:31:14;;;;;;;4.03;2.03;;;18.90;99.90;;;;;;5032006;28;20263;-63
2021/07/31 08:33:41;;;;;;;3.40;1.83;;;18.90;99.90;;;;;;5032317;28;20210;-63
2021/07/31 08:36:09;;;;;;;3.87;2.03;;;18.80;99.90;;;;;;5031997;28;20214;-64
2021/07/31 08:38:36;;;;;;;3.00;1.30;;;18.70;99.90;;;;;;5031826;28;20202;-63
2021/07/31 08:41:04;;;;;;;6.17;1.97;;;18.50;99.90;;;;;;5031881;28;20264;-63
2021/07/31 08:43:32;;;;;;;3.47;1.70;;;18.40;99.90;;;;;;5028741;28;20241;-64
2021/07/31 08:46:00;;;;;;;4.53;1.73;;;18.30;99.90;;;;;;5032248;28;20214;-65
2021/07/31 08:48:29;;;;;;;2.27;1.60;;;18.30;99.90;;;;;;5031921;28;20710;-63
2021/07/31 08:50:58;;;;;;;5.00;1.77;;;18.50;99.90;;;;;;5032165;28;20295;-64
2021/07/31 08:53:25;;;;;;;5.37;1.73;;;18.80;99.90;;;;;;5031595;28;20265;-64
2021/07/31 08:55:52;;;;;;;3.83;1.90;;;19.10;99.90;;;;;;5031565;28;20264;-64
2021/07/31 08:58:19;;;;;;;2.00;1.50;;;19.10;99.90;;;;;;5032190;28;20293;-64
2021/07/31 09:00:46;;;;;;;4.30;2.10;;;18.80;99.90;;;;;;5031805;28;20567;-64
2021/07/31 09:03:15;;;;;;;3.50;1.67;;;18.80;99.90;;;;;;5031244;28;20253;-64
2021/07/31 09:05:44;;;;;;;2.90;1.50;;;18.80;99.90;;;;;;5031594;28;20821;-66
2021/07/31 09:08:10;;;;;;;5.27;1.80;;;19.10;99.90;;;;;;5032250;28;20260;-66
2021/07/31 09:10:39;;;;;;;4.87;1.47;;;19.10;99.90;;;;;;5031408;28;20280;-66
2021/07/31 09:13:07;;;;;;;3.23;1.70;;;19.10;99.90;;;;;;5031804;28;20207;-67
2021/07/31 09:15:37;;;;;;;4.27;1.90;;;19.10;99.90;;;;;;5031515;28;20206;-67
2021/07/31 09:18:24;;;;;;;3.97;1.90;;;18.80;99.90;;;;;;5031861;28;20206;-66
2021/07/31 09:20:57;;;;;;;3.70;1.70;;;18.80;99.90;;;;;;5031739;28;20217;-67
2021/07/31 09:23:24;;;;;;;4.40;2.00;;;18.80;99.90;;;;;;5031412;28;20721;-65
2021/07/31 09:26:01;;;;;;;5.13;2.07;;;18.90;99.90;;;;;;5031757;28;20256;-65
2021/07/31 09:28:28;;;;;;;6.83;1.87;;;19.10;99.90;;;;;;5035586;28;20279;-65
2021/07/31 09:30:55;;;;;;;5.37;1.97;;;19.30;99.90;;;;;;5036078;28;20214;-65
2021/07/31 09:33:22;;;;;;;4.07;1.90;;;19.10;99.90;;;;;;5034976;28;20275;-65
2021/07/31 09:35:49;;;;;;;3.17;2.10;;;18.90;99.90;;;;;;5035783;28;20210;-64
2021/07/31 09:38:17;;;;;;;2.93;1.63;;;18.80;99.90;;;;;;5035702;28;20260;-64
2021/07/31 09:40:44;;;;;;;3.40;1.80;;;18.80;99.90;;;;;;5035746;28;20567;-64
2021/07/31 09:43:16;;;;;;;5.80;1.97;;;18.70;99.90;;;;;;5035480;28;20206;-65
2021/07/31 09:45:43;;;;;;;3.20;2.10;;;18.70;99.90;;;;;;5035563;28;20214;-62
2021/07/31 09:48:10;;;;;;;6.50;2.00;;;18.60;99.90;;;;;;5035858;28;20316;-63
2021/07/31 09:50:39;;;;;;;4.03;1.80;;;18.70;99.90;;;;;;5035358;28;20648;-63
2021/07/31 09:53:10;;;;;;;4.63;2.33;;;18.60;99.90;;;;;;5035251;28;20264;-65
2021/07/31 09:55:43;;;;;;;3.87;1.93;;;18.60;99.90;;;;;;5035791;28;20210;-65
2021/07/31 09:58:13;;;;;;;3.73;2.13;;;18.70;99.90;;;;;;5035329;28;20675;-64
2021/07/31 10:00:40;;;;;;;6.30;2.10;;;19.00;99.90;;;;;;5035471;28;20226;-64
2021/07/31 10:03:09;;;;;;;6.60;1.90;;;19.00;99.90;;;;;;5035260;28;20206;-64
2021/07/31 10:05:37;;;;;;;3.73;1.70;;;19.20;99.90;;;;;;5035334;28;20264;-64
2021/07/31 10:08:06;;;;;;;4.77;2.00;;;19.10;99.90;;;;;;5035483;28;20268;-64
2021/07/31 10:10:32;;;;;;;6.37;1.90;;;18.90;99.90;;;;;;5035004;28;20226;-64
2021/07/31 10:13:01;;;;;;;1.90;1.70;;;18.80;99.90;;;;;;5034584;28;20210;-64
2021/07/31 10:15:28;;;;;;;5.47;2.10;;;18.80;99.90;;;;;;5035007;28;20282;-64
2021/07/31 10:17:54;;;;;;;4.93;2.00;;;18.70;99.90;;;;;;5034817;28;20202;-64
2021/07/31 10:20:25;;;;;;;2.37;1.67;;;18.70;99.90;;;;;;5034873;28;20646;-64
2021/07/31 10:22:52;;;;;;;3.37;1.90;;;18.70;99.90;;;;;;5034609;28;20358;-65
2021/07/31 10:25:19;;;;;;;3.73;1.80;;;18.80;99.90;;;;;;5034286;28;20629;-65
2021/07/31 10:27:47;;;;;;;4.50;1.83;;;19.00;99.90;;;;;;5034946;28;20226;-64
2021/07/31 10:30:30;;;;;;;4.77;1.90;;;19.20;99.90;;;;;;5035107;28;20233;-64
2021/07/31 10:32:57;;;;;;;3.50;1.93;;;19.20;99.90;;;;;;5034434;28;20206;-65
2021/07/31 10:35:33;;;;;;;4.77;1.83;;;19.40;99.90;;;;;;5034530;28;20217;-64
2021/07/31 10:38:00;;;;;;;4.43;1.60;;;19.60;99.90;;;;;;5033698;28;20216;-64
2021/07/31 10:40:56;;;;;;;3.43;1.87;;;19.80;99.90;;;;;;5034593;28;20222;-64
2021/07/31 10:43:24;;;;;;;4.60;2.07;;;19.60;99.90;;;;;;5034363;28;20211;-64
2021/07/31 10:46:20;;;;;;;6.93;2.43;;;19.60;99.90;;;;;;5034356;28;20264;-64
2021/07/31 10:48:47;;;;;;;3.40;1.90;;;19.70;99.90;;;;;;5034561;28;20230;-65
2021/07/31 10:51:42;;;;;;;5.43;1.90;;;20.00;99.90;;;;;;5035057;28;20605;-64
2021/07/31 10:54:08;;;;;;;4.07;1.97;;;20.10;99.90;;;;;;5033864;28;20588;-63
2021/07/31 10:56:54;;;;;;;5.37;1.83;;;20.20;99.90;;;;;;5033899;28;20213;-63
2021/07/31 10:59:21;;;;;;;4.40;1.77;;;20.10;99.90;;;;;;5034328;28;20230;-64
2021/07/31 11:01:50;;;;;;;2.77;1.70;;;19.90;99.90;;;;;;5034034;28;20240;-64
2021/07/31 11:04:53;;;;;;;3.57;1.87;;;20.10;99.90;;;;;;5033562;28;20206;-63
2021/07/31 11:07:25;;;;;;;3.30;1.73;;;20.20;99.90;;;;;;5034099;28;20206;-64
2021/07/31 11:10:29;;;;;;;3.23;1.77;;;20.40;99.90;;;;;;5034140;28;20226;-64
2021/07/31 11:12:56;;;;;;;2.80;1.47;;;20.30;99.90;;;;;;5033547;28;20210;-63
2021/07/31 11:15:23;;;;;;;3.53;1.80;;;20.50;99.90;;;;;;5033369;28;20263;-65
2021/07/31 11:17:56;;;;;;;4.03;1.57;;;20.40;99.90;;;;;;5034028;28;20221;-64
2021/07/31 11:20:32;;;;;;;3.77;1.70;;;20.40;99.90;;;;;;5033702;28;20222;-65
2021/07/31 11:23:05;;;;;;;1.83;1.40;;;20.60;99.90;;;;;;5033472;28;20210;-65
2021/07/31 11:25:32;;;;;;;5.00;1.50;;;20.60;99.90;;;;;;5033494;28;20210;-65
2021/07/31 11:28:00;;;;;;;5.20;1.50;;;20.60;99.90;;;;;;5033637;28;20566;-65
2021/07/31 11:30:38;;;;;;;2.93;1.20;;;20.40;99.90;;;;;;5033445;28;20269;-66
2021/07/31 11:33:24;;;;;;;2.00;1.40;;;20.30;99.90;;;;;;5033311;28;20206;-66
2021/07/31 11:35:52;;;;;;;1.93;1.30;;;20.20;99.90;;;;;;5033389;28;20210;-66
2021/07/31 11:38:36;;;;;;;2.40;1.10;;;20.20;99.90;;;;;;5033050;28;20210;-64
2021/07/31 11:41:13;;;;;;;2.20;1.30;;;20.10;99.90;;;;;;5033364;28;20217;-64
2021/07/31 11:43:45;;;;;;;5.63;1.93;;;20.10;99.90;;;;;;5032844;28;20206;-65
2021/07/31 11:46:23;;;;;;;2.83;1.70;;;20.00;99.90;;;;;;5033458;28;20245;-64
2021/07/31 11:48:52;;;;;;;3.27;1.47;;;20.20;99.90;;;;;;5031873;28;20234;-65
2021/07/31 11:51:18;;;;;;;1.70;1.20;;;20.40;99.90;;;;;;5033127;28;20237;-65
2021/07/31 11:53:45;;;;;;;3.20;1.30;;;20.50;99.90;;;;;;5032800;28;20210;-65
2021/07/31 11:56:14;;;;;;;2.90;1.50;;;20.90;99.90;;;;;;5033753;28;20667;-64
2021/07/31 11:58:42;;;;;;;4.67;1.40;;;21.20;99.90;;;;;;5032798;28;20295;-66
2021/07/31 12:01:10;;;;;;;3.50;1.70;;;21.20;99.90;;;;;;5032840;28;20259;-67
2021/07/31 12:03:43;;;;;;;2.23;1.40;;;21.20;99.90;;;;;;5032705;28;20214;-67
2021/07/31 12:06:31;;;;;;;3.60;1.63;;;21.00;99.90;;;;;;5032814;28;20210;-65
2021/07/31 12:09:00;;;;;;;2.10;1.43;;;20.90;99.90;;;;;;5032716;28;20265;-64
2021/07/31 12:11:32;;;;;;;1.93;1.43;;;20.90;99.90;;;;;;5032351;28;20594;-65
2021/07/31 12:13:58;;;;;;;4.07;1.50;;;21.00;99.90;;;;;;5032414;28;20206;-65
2021/07/31 12:16:28;;;;;;;3.37;1.47;;;20.90;99.90;;;;;;5032589;28;20210;-65
2021/07/31 12:18:55;;;;;;;5.83;1.43;;;21.00;99.90;;;;;;5032690;28;20272;-66
2021/07/31 12:21:28;;;;;;;2.13;1.33;;;21.10;99.90;;;;;;5032417;28;20625;-66
2021/07/31 12:23:56;;;;;;;2.97;1.50;;;21.10;99.90;;;;;;5031963;28;20236;-65
2021/07/31 12:26:30;;;;;;;4.47;1.80;;;21.10;99.90;;;;;;5032388;28;20202;-66
2021/07/31 12:28:57;;;;;;;3.10;1.57;;;21.00;99.90;;;;;;5032137;28;20227;-64
2021/07/31 12:31:25;;;;;;;2.67;1.70;;;21.00;99.90;;;;;;5032611;28;20237;-63
2021/07/31 12:33:52;;;;;;;2.83;1.57;;;20.80;99.90;;;;;;5031783;28;20206;-64
2021/07/31 12:36:19;;;;;;;2.47;1.23;;;20.60;99.90;;;;;;5032138;28;20210;-65
2021/07/31 12:38:46;;;;;;;4.23;1.40;;;20.60;99.90;;;;;;5031865;28;20232;-64
2021/07/31 12:41:14;;;;;;;4.37;1.43;;;20.60;99.90;;;;;;5032452;28;20260;-65
2021/07/31 12:43:41;;;;;;;2.83;1.30;;;20.70;99.90;;;;;;5031754;28;20217;-67
2021/07/31 12:46:08;;;;;;;2.80;1.57;;;20.70;99.90;;;;;;5032084;28;20210;-64
2021/07/31 12:48:35;;;;;;;2.67;1.50;;;20.80;99.90;;;;;;5032001;28;20223;-64
2021/07/31 12:51:03;;;;;;;2.00;1.50;;;20.90;99.90;;;;;;5031859;28;20210;-64
2021/07/31 12:53:30;;;;;;;3.03;1.60;;;20.90;99.90;;;;;;5031562;28;20629;-64